WetterOnline ( https://www.wetteronline.de )

Wetter aktuell Dollnstein

Aktuelles Wetter: Gelbelsee (539m)

6-stündlich | Neueste Meldungen
Ortszeit Temperatur Wetter
Di, 22.06. 2:00 16.0° C Regen
Mo, 21.06. 20:00 24.1° C wolkig
Mo, 21.06. 14:00 24.4° C wolkenlos
Mo, 21.06. 8:00 17.0° C fast wolkenlos
Mo, 21.06. 2:00 16.4° C wolkenlos
So, 20.06. 20:00 24.5° C wolkig
So, 20.06. 14:00 24.5° C wolkenlos
So, 20.06. 8:00 23.0° C bedeckt
Ortszeit Temperatur Wetter
Di, 22.06. 6:00 14.0° C leicht bewölkt
Di, 22.06. 5:50 14.0° C leicht bewölkt
Di, 22.06. 5:40 13.9° C wolkenlos
Di, 22.06. 5:30 13.9° C wolkenlos
Di, 22.06. 5:20 13.9° C wolkenlos
Di, 22.06. 5:10 14.0° C wolkenlos
Di, 22.06. 5:00 14.0° C wolkenlos
Di, 22.06. 4:30 13.9° C wolkenlos
Di, 22.06. 4:00 14.2° C leicht bewölkt
Di, 22.06. 3:30 14.7° C wolkig
Di, 22.06. 3:00 14.9° C bewölkt
Di, 22.06. 2:30 15.6° C bewölkt
Ortszeit Relative Feuchte Sichtweite
Di, 22.06. 2:00 91% 50 km
Mo, 21.06. 20:00 53% 40 km
Mo, 21.06. 14:00 52% >70 km
Mo, 21.06. 8:00 86% 50 km
Mo, 21.06. 2:00 94% 55 km
So, 20.06. 20:00 64% 35 km
So, 20.06. 14:00 61% 27 km
So, 20.06. 8:00 73% 30 km
Ortszeit Relative Feuchte Sichtweite
Di, 22.06. 6:00 97% 35 km
Di, 22.06. 5:50 97% -
Di, 22.06. 5:40 97% -
Di, 22.06. 5:30 97% 30 km
Di, 22.06. 5:20 97% -
Di, 22.06. 5:10 97% -
Di, 22.06. 5:00 97% 45 km
Di, 22.06. 4:30 99% 13 km
Di, 22.06. 4:00 98% 12 km
Di, 22.06. 3:30 97% 40 km
Di, 22.06. 3:00 97% 30 km
Di, 22.06. 2:30 91% 65 km
Ortszeit Niederschlagsmenge Niederschlagsart
Di, 22.06. 2:00 10 l/m2 in 6 Std. Regen
Mo, 21.06. 20:00 0.0 l/m2 in 12 Std. -
Mo, 21.06. 14:00 0.0 l/m2 in 6 Std. -
Mo, 21.06. 8:00 12 l/m2 in 12 Std. -
Mo, 21.06. 2:00 12 l/m2 in 6 Std. Regen
So, 20.06. 20:00 0.1 l/m2 in 12 Std. -
So, 20.06. 14:00 0.1 l/m2 in 6 Std. Regen
So, 20.06. 8:00 0.0 l/m2 in 12 Std. -
Ortszeit Niederschlagsmenge Niederschlagsart
Di, 22.06. 6:00 0.1 l/m2 in 1 Std. -
Di, 22.06. 5:50 keine Meldung -
Di, 22.06. 5:40 keine Meldung -
Di, 22.06. 5:30 0.1 l/m2 in 1 Std. -
Di, 22.06. 5:20 keine Meldung -
Di, 22.06. 5:10 keine Meldung -
Di, 22.06. 5:00 0.0 l/m2 in 1 Std. -
Di, 22.06. 4:30 0.0 l/m2 in 1 Std. -
Di, 22.06. 4:00 0.0 l/m2 in 1 Std. -
Di, 22.06. 3:30 0.0 l/m2 in 1 Std. -
Di, 22.06. 3:00 0.1 l/m2 in 1 Std. -
Di, 22.06. 2:30 0.1 l/m2 in 1 Std. -
Ortszeit Stärke Spitze Richtung
km/h Bft. km/h Grad Sektor
Di, 22.06. 2:00 11 2 32 20° N
Mo, 21.06. 20:00 14 3 25 330° NW
Mo, 21.06. 14:00 7 2 22 250° W
Mo, 21.06. 8:00 9 2 19 220° SW
Mo, 21.06. 2:00 13 3 70 330° NW
So, 20.06. 20:00 7 2 22 50° NO
So, 20.06. 14:00 7 2 28 60° NO
So, 20.06. 8:00 4 1 36 340° N
Ortszeit Stärke Spitze Richtung
km/h Bft. km/h Grad Sektor
Di, 22.06. 6:00 9 2 15 270° W
Di, 22.06. 5:50 9 2 - 270° W
Di, 22.06. 5:40 9 2 - 270° W
Di, 22.06. 5:30 7 2 14 250° W
Di, 22.06. 5:20 7 2 - 250° W
Di, 22.06. 5:10 9 2 - 240° SW
Di, 22.06. 5:00 9 2 13 250° W
Di, 22.06. 4:30 11 2 14 240° SW
Di, 22.06. 4:00 7 2 22 230° SW
Di, 22.06. 3:30 7 2 13 230° SW
Di, 22.06. 3:00 6 1 15 270° W
Di, 22.06. 2:30 9 2 15 350° N
Ortszeit Untergrenze Bedeckung Gattung
total tief tief mittel hoch
Di, 22.06. 2:00 2100 m 8/8 1/8 - - -
Mo, 21.06. 20:00 3300 m 8/8 8/8 - - -
Mo, 21.06. 14:00 - 0/8 0/8 - - -
Mo, 21.06. 8:00 6000 m 1/8 1/8 - - -
Mo, 21.06. 2:00 - 0/8 0/8 - - -
So, 20.06. 20:00 8400 m 8/8 0/8 - - -
So, 20.06. 14:00 7800 m 0/8 0/8 - - -
So, 20.06. 8:00 4500 m 8/8 8/8 - - -
Ortszeit Bedeckungsgrad in Achtel und Wolkenuntergrenze
Di, 22.06. 6:00 3(3900m)
Di, 22.06. 5:50 3(3900m)
Di, 22.06. 5:40 keine Wolken
Di, 22.06. 5:30 keine Wolken
Di, 22.06. 5:20 keine Wolken
Di, 22.06. 5:10 keine Wolken
Di, 22.06. 5:00 keine Wolken
Di, 22.06. 4:30 keine Wolken
Di, 22.06. 4:00 1(<30m)
Di, 22.06. 3:30 5(3300m) 5(3300m)
Di, 22.06. 3:00 6(3300m) 7(4500m)
Di, 22.06. 2:30 7(4200m) 7(7200m) 8(9000m)
Ortszeit Luftdruck NN (hPa) Tendenz (hPa in 3 Std.)
Di, 22.06. 2:00 1010 + 0,1
Mo, 21.06. 20:00 1006 - 0,3
Mo, 21.06. 14:00 1008 - 0,3
Mo, 21.06. 8:00 1009 + 1,0
Mo, 21.06. 2:00 1007 - 1,0
So, 20.06. 20:00 1006 - 2,4
So, 20.06. 14:00 1010 - 1,2
So, 20.06. 8:00 1011 + 1,4
Ortszeit Luftdruck NN (hPa) Tendenz (hPa in 3 Std.)
Di, 22.06. 6:00 1012 + 1,0
Di, 22.06. 5:50 1012 keine Meldung
Di, 22.06. 5:40 1011 keine Meldung
Di, 22.06. 5:30 1012 + 1,7
Di, 22.06. 5:20 1012 keine Meldung
Di, 22.06. 5:10 1012 keine Meldung
Di, 22.06. 5:00 1011 + 1,0
Di, 22.06. 4:30 1012 + 0,9
Di, 22.06. 4:00 1011 - 0,7
Di, 22.06. 3:30 1011 - 1,8
Di, 22.06. 3:00 1010 0,0
Di, 22.06. 2:30 1009 - 0,3
Ortszeit Schneehöhe (cm)
Di, 22.06. 2:00 -
Mo, 21.06. 20:00 -
Mo, 21.06. 14:00 -
Mo, 21.06. 8:00 -
Mo, 21.06. 2:00 -
So, 20.06. 20:00 -
So, 20.06. 14:00 -
So, 20.06. 8:00 -
Ortszeit Schneehöhe (cm)
Di, 22.06. 6:00 -
Di, 22.06. 5:50 -
Di, 22.06. 5:40 -
Di, 22.06. 5:30 -
Di, 22.06. 5:20 -
Di, 22.06. 5:10 -
Di, 22.06. 5:00 -
Di, 22.06. 4:30 -
Di, 22.06. 4:00 -
Di, 22.06. 3:30 -
Di, 22.06. 3:00 -
Di, 22.06. 2:30 -
Link zu dieser Seite / Seite empfehlen

Das Wetter in ...